aviador You're here:

K2DP Decoded Metar

STUMPY POINT in NC, USA
Report Time2017-09-23 17:56:00
UTC Time2017-09-23 18:17:06
Flight Rules vfr VFR
Wind040° at 07 Gusting to 14 kt
W.Rank040° ranks 10
Current wind is below 040° avg. (7.9)
Visibility9999 m
Phenomena:N/A
Clouds:N/A
Expected CloudBase > 4,400 ft AGL from Temp-Dew spread
CeilingNone
Temp29°C (ISA +14)
Dew Point18°C (51% RH)
Heat Index29.8°C
QNH1017 hPa
Density Alt1,759 ft
Elevation10 ft
Report Wrong Elevation
Raw Report
K2DP 231756Z AUTO 04007G14KT 10SM CLR 29/18 A3002 RMK AO2 SLPNO
60001 T02880176 10292 20187 57007 $=

Extra information for K2DP:More info

Metar Taf Metar & Taf Last 4 Metars F.Rules Stats Wind Profile Meteogram Temp Stats Airport Information Weather charts Add Link Nearby VenuesMetar ALERT Operation Metar Decoded Social comments

AIRNAV info for K2DP